Time,TemperatureF,DewpointF,PressureIn,WindDirection,WindDirectionDegrees,WindSpeedMPH,WindSpeedGustMPH,Humidity,HourlyPrecipIn,Conditions,Clouds,dailyrainin,SolarRadiationWatts/m^2,SoftwareType,DateUTC
2013-05-12 00:01:00,66.0,45.0,-100.00,SE,146,3.0,4.0,47,0.00,,,0.00,0.000000,,2013-05-12 07:01:00,
2013-05-12 00:11:00,66.0,45.0,-100.00,SE,146,3.0,4.0,47,0.00,,,0.00,0.000000,,2013-05-12 07:11:00,
2013-05-12 01:32:00,64.0,44.0,-100.00,SSE,152,4.0,5.0,49,-99.99,,,0.00,0.000000,,2013-05-12 08:32:00,
2013-05-12 01:42:00,64.0,44.0,-100.00,SSE,152,4.0,5.0,49,-99.99,,,0.00,0.000000,,2013-05-12 08:42:00,
2013-05-12 01:53:00,64.0,44.0,-100.00,SSE,152,4.0,5.0,49,-99.99,,,0.00,0.000000,,2013-05-12 08:53:00,
2013-05-12 02:01:00,64.0,44.0,-100.00,SSE,152,4.0,5.0,49,-99.99,,,0.00,0.000000,,2013-05-12 09:01:00,
2013-05-12 02:11:00,64.0,44.0,-100.00,SSE,152,4.0,5.0,49,-99.99,,,0.00,0.000000,,2013-05-12 09:11:00,
2013-05-12 02:33:00,63.0,46.0,-100.00,SE,146,4.0,6.0,53,0.00,,,0.00,0.000000,,2013-05-12 09:33:00,
2013-05-12 02:43:00,63.0,46.0,-100.00,SE,146,4.0,6.0,53,0.00,,,0.00,0.000000,,2013-05-12 09:43:00,
2013-05-12 02:53:00,63.0,46.0,-100.00,SE,146,4.0,6.0,53,0.00,,,0.00,0.000000,,2013-05-12 09:53:00,
2013-05-12 03:02:00,63.0,46.0,-100.00,SE,146,4.0,6.0,53,0.00,,,0.00,0.000000,,2013-05-12 10:02:00,
2013-05-12 03:12:00,63.0,46.0,-100.00,SE,146,4.0,6.0,53,0.00,,,0.00,0.000000,,2013-05-12 10:12:00,
2013-05-12 03:33:00,63.0,45.0,-100.00,SW,226,4.0,6.0,51,0.00,,,0.00,0.000000,,2013-05-12 10:33:00,
2013-05-12 03:42:00,63.0,45.0,-100.00,SW,226,4.0,6.0,51,0.00,,,0.00,0.000000,,2013-05-12 10:42:00,
2013-05-12 03:52:00,63.0,45.0,-100.00,SW,226,4.0,6.0,51,0.00,,,0.00,0.000000,,2013-05-12 10:52:00,
2013-05-12 04:02:00,63.0,45.0,-100.00,SW,226,4.0,6.0,51,0.00,,,0.00,0.000000,,2013-05-12 11:02:00,
2013-05-12 04:32:00,62.0,47.0,-100.00,SSW,209,6.0,9.0,58,-99.99,,,0.00,0.000000,,2013-05-12 11:32:00,
2013-05-12 04:42:00,62.0,47.0,-100.00,SSW,209,6.0,9.0,58,-99.99,,,0.00,0.000000,,2013-05-12 11:42:00,
2013-05-12 04:52:00,62.0,47.0,-100.00,SSW,209,6.0,9.0,58,-99.99,,,0.00,0.000000,,2013-05-12 11:52:00,
2013-05-12 05:01:00,62.0,47.0,-100.00,SSW,209,6.0,9.0,58,-99.99,,,0.00,0.000000,,2013-05-12 12:01:00,
2013-05-12 05:11:00,62.0,47.0,-100.00,SSW,209,6.0,9.0,58,-99.99,,,0.00,0.000000,,2013-05-12 12:11:00,
2013-05-12 06:42:00,60.0,47.0,-100.00,SSE,160,5.0,9.0,61,-99.99,,,0.00,11.000000,,2013-05-12 13:42:00,
2013-05-12 06:52:00,60.0,47.0,-100.00,SSE,160,5.0,9.0,61,-99.99,,,0.00,11.000000,,2013-05-12 13:52:00,
2013-05-12 07:01:00,60.0,47.0,-100.00,SSE,160,5.0,9.0,61,-99.99,,,0.00,11.000000,,2013-05-12 14:01:00,
2013-05-12 07:11:00,60.0,47.0,-100.00,SSE,160,5.0,9.0,61,-99.99,,,0.00,11.000000,,2013-05-12 14:11:00,
2013-05-12 07:42:00,63.0,48.0,-100.00,SSW,193,7.0,9.0,57,0.00,,,0.00,88.000000,,2013-05-12 14:42:00,
2013-05-12 07:52:00,63.0,48.0,-100.00,SSW,193,7.0,9.0,57,0.00,,,0.00,88.000000,,2013-05-12 14:52:00,
2013-05-12 08:01:00,63.0,48.0,-100.00,SSW,193,7.0,9.0,57,0.00,,,0.00,88.000000,,2013-05-12 15:01:00,
2013-05-12 08:11:00,63.0,48.0,-100.00,SSW,193,7.0,9.0,57,0.00,,,0.00,88.000000,,2013-05-12 15:11:00,
2013-05-12 08:34:00,67.0,48.0,-100.00,SSW,210,6.0,11.0,51,0.00,,,-99.99,294.000000,,2013-05-12 15:34:00,
2013-05-12 08:42:00,67.0,48.0,-100.00,SSW,210,6.0,11.0,51,0.00,,,-99.99,294.000000,,2013-05-12 15:42:00,
2013-05-12 08:53:00,67.0,48.0,-100.00,SSW,210,6.0,11.0,51,0.00,,,-99.99,294.000000,,2013-05-12 15:53:00,
2013-05-12 09:02:00,67.0,48.0,-100.00,SSW,210,6.0,11.0,51,0.00,,,-99.99,294.000000,,2013-05-12 16:02:00,
2013-05-12 09:12:00,67.0,48.0,-100.00,SSW,210,6.0,11.0,51,0.00,,,-99.99,294.000000,,2013-05-12 16:12:00,
2013-05-12 09:33:00,69.0,48.0,-100.00,SSW,201,8.0,13.0,48,0.00,,,0.00,392.000000,,2013-05-12 16:33:00,
2013-05-12 09:42:00,69.0,48.0,-100.00,SSW,201,8.0,13.0,48,0.00,,,0.00,392.000000,,2013-05-12 16:42:00,
2013-05-12 09:52:00,69.0,48.0,-100.00,SSW,201,8.0,13.0,48,0.00,,,0.00,392.000000,,2013-05-12 16:52:00,
2013-05-12 10:01:00,69.0,48.0,-100.00,SSW,201,8.0,13.0,48,0.00,,,0.00,392.000000,,2013-05-12 17:01:00,
2013-05-12 10:11:00,69.0,48.0,-100.00,SSW,201,8.0,13.0,48,0.00,,,0.00,392.000000,,2013-05-12 17:11:00,
2013-05-12 10:42:00,70.0,45.0,-100.00,SSW,211,8.0,14.0,41,0.00,,,0.00,555.000000,,2013-05-12 17:42:00,
2013-05-12 10:52:00,70.0,45.0,-100.00,SSW,211,8.0,14.0,41,0.00,,,0.00,555.000000,,2013-05-12 17:52:00,
2013-05-12 11:01:00,70.0,45.0,-100.00,SSW,211,8.0,14.0,41,0.00,,,0.00,555.000000,,2013-05-12 18:01:00,
2013-05-12 11:12:00,70.0,45.0,-100.00,SSW,211,8.0,14.0,41,0.00,,,0.00,555.000000,,2013-05-12 18:12:00,
2013-05-12 11:32:00,73.0,41.0,-100.00,South,191,12.0,19.0,32,0.00,,,0.00,645.000000,,2013-05-12 18:32:00,
2013-05-12 11:42:00,73.0,41.0,-100.00,South,191,12.0,19.0,32,0.00,,,0.00,645.000000,,2013-05-12 18:42:00,
2013-05-12 11:52:00,73.0,41.0,-100.00,South,191,12.0,19.0,32,0.00,,,0.00,645.000000,,2013-05-12 18:52:00,
2013-05-12 12:01:00,73.0,41.0,-100.00,South,191,12.0,19.0,32,0.00,,,0.00,645.000000,,2013-05-12 19:01:00,
2013-05-12 12:11:00,73.0,41.0,-100.00,South,191,12.0,19.0,32,0.00,,,0.00,645.000000,,2013-05-12 19:11:00,
2013-05-12 12:32:00,73.0,41.0,-100.00,South,180,10.0,21.0,32,0.00,,,0.00,476.000000,,2013-05-12 19:32:00,
2013-05-12 12:42:00,73.0,41.0,-100.00,South,180,10.0,21.0,32,0.00,,,0.00,476.000000,,2013-05-12 19:42:00,
2013-05-12 12:52:00,73.0,41.0,-100.00,South,180,10.0,21.0,32,0.00,,,0.00,476.000000,,2013-05-12 19:52:00,
2013-05-12 13:02:00,73.0,41.0,-100.00,South,180,10.0,21.0,32,0.00,,,0.00,476.000000,,2013-05-12 20:02:00,
2013-05-12 13:11:00,73.0,41.0,-100.00,South,180,10.0,21.0,32,0.00,,,0.00,476.000000,,2013-05-12 20:11:00,
2013-05-12 13:42:00,77.0,41.0,-100.00,SSE,167,9.0,21.0,28,0.00,,,0.00,763.000000,,2013-05-12 20:42:00,
2013-05-12 13:52:00,77.0,41.0,-100.00,SSE,167,9.0,21.0,28,0.00,,,0.00,763.000000,,2013-05-12 20:52:00,
2013-05-12 14:01:00,77.0,41.0,-100.00,SSE,167,9.0,21.0,28,0.00,,,0.00,763.000000,,2013-05-12 21:01:00,
2013-05-12 14:11:00,77.0,41.0,-100.00,SSE,167,9.0,21.0,28,0.00,,,0.00,763.000000,,2013-05-12 21:11:00,
2013-05-12 14:33:00,77.0,40.0,-100.00,SW,219,13.0,22.0,27,0.00,,,0.00,899.000000,,2013-05-12 21:33:00,
2013-05-12 14:42:00,77.0,40.0,-100.00,SW,219,13.0,22.0,27,0.00,,,0.00,899.000000,,2013-05-12 21:42:00,
2013-05-12 14:53:00,77.0,40.0,-100.00,SW,219,13.0,22.0,27,0.00,,,0.00,899.000000,,2013-05-12 21:53:00,
2013-05-12 15:02:00,77.0,40.0,-100.00,SW,219,13.0,22.0,27,0.00,,,0.00,899.000000,,2013-05-12 22:02:00,
2013-05-12 15:12:00,77.0,40.0,-100.00,SW,219,13.0,22.0,27,0.00,,,0.00,899.000000,,2013-05-12 22:12:00,
2013-05-12 15:33:00,77.0,42.0,-100.00,WSW,258,11.0,21.0,29,0.00,,,-99.99,917.000000,,2013-05-12 22:33:00,
2013-05-12 15:42:00,77.0,42.0,-100.00,WSW,258,11.0,21.0,29,0.00,,,-99.99,917.000000,,2013-05-12 22:42:00,
2013-05-12 15:52:00,77.0,42.0,-100.00,WSW,258,11.0,21.0,29,0.00,,,-99.99,917.000000,,2013-05-12 22:52:00,
2013-05-12 16:02:00,77.0,42.0,-100.00,WSW,258,11.0,21.0,29,0.00,,,-99.99,917.000000,,2013-05-12 23:02:00,
2013-05-12 16:11:00,77.0,42.0,-100.00,WSW,258,11.0,21.0,29,0.00,,,-99.99,917.000000,,2013-05-12 23:11:00,
2013-05-12 16:42:00,77.0,45.0,-100.00,WNW,284,13.0,22.0,32,0.00,,,0.00,803.000000,,2013-05-12 23:42:00,
2013-05-12 16:52:00,77.0,45.0,-100.00,WNW,284,13.0,22.0,32,0.00,,,0.00,803.000000,,2013-05-12 23:52:00,
2013-05-12 17:01:00,77.0,45.0,-100.00,WNW,284,13.0,22.0,32,0.00,,,0.00,803.000000,,2013-05-13 00:01:00,
2013-05-12 17:11:00,77.0,45.0,-100.00,WNW,284,13.0,22.0,32,0.00,,,0.00,803.000000,,2013-05-13 00:11:00,
2013-05-12 18:42:00,71.0,43.0,-100.00,WNW,290,13.0,24.0,36,-99.99,,,0.00,405.000000,,2013-05-13 01:42:00,
2013-05-12 18:52:00,71.0,43.0,-100.00,WNW,290,13.0,24.0,36,-99.99,,,0.00,405.000000,,2013-05-13 01:52:00,
2013-05-12 19:01:00,71.0,43.0,-100.00,WNW,290,13.0,24.0,36,-99.99,,,0.00,405.000000,,2013-05-13 02:01:00,
2013-05-12 19:11:00,71.0,43.0,-100.00,WNW,290,13.0,24.0,36,-99.99,,,0.00,405.000000,,2013-05-13 02:11:00,
2013-05-12 19:32:00,67.0,41.0,-100.00,WNW,284,8.0,21.0,38,0.00,,,0.00,186.000000,,2013-05-13 02:32:00,
2013-05-12 19:42:00,67.0,41.0,-100.00,WNW,284,8.0,21.0,38,0.00,,,0.00,186.000000,,2013-05-13 02:42:00,
2013-05-12 19:52:00,67.0,41.0,-100.00,WNW,284,8.0,21.0,38,0.00,,,0.00,186.000000,,2013-05-13 02:52:00,
2013-05-12 20:01:00,67.0,41.0,-100.00,WNW,284,8.0,21.0,38,0.00,,,0.00,186.000000,,2013-05-13 03:01:00,
2013-05-12 20:11:00,67.0,41.0,-100.00,WNW,284,8.0,21.0,38,0.00,,,0.00,186.000000,,2013-05-13 03:11:00,
2013-05-12 20:33:00,64.0,40.0,-100.00,West,281,6.0,18.0,42,0.00,,,0.00,59.000000,,2013-05-13 03:33:00,
2013-05-12 20:42:00,64.0,40.0,-100.00,West,281,6.0,18.0,42,0.00,,,0.00,59.000000,,2013-05-13 03:42:00,
2013-05-12 20:53:00,64.0,40.0,-100.00,West,281,6.0,18.0,42,0.00,,,0.00,59.000000,,2013-05-13 03:53:00,
2013-05-12 21:02:00,64.0,40.0,-100.00,West,281,6.0,18.0,42,0.00,,,0.00,59.000000,,2013-05-13 04:02:00,
2013-05-12 21:12:00,64.0,40.0,-100.00,West,281,6.0,18.0,42,0.00,,,0.00,59.000000,,2013-05-13 04:12:00,
2013-05-12 21:33:00,61.0,41.0,-100.00,WNW,283,6.0,12.0,47,0.00,,,0.00,2.000000,,2013-05-13 04:33:00,
2013-05-12 21:42:00,61.0,41.0,-100.00,WNW,283,6.0,12.0,47,0.00,,,0.00,2.000000,,2013-05-13 04:42:00,
2013-05-12 21:52:00,61.0,41.0,-100.00,WNW,283,6.0,12.0,47,0.00,,,0.00,2.000000,,2013-05-13 04:52:00,
2013-05-12 22:02:00,61.0,41.0,-100.00,WNW,283,6.0,12.0,47,0.00,,,0.00,2.000000,,2013-05-13 05:02:00,
2013-05-12 22:11:00,61.0,41.0,-100.00,WNW,283,6.0,12.0,47,0.00,,,0.00,2.000000,,2013-05-13 05:11:00,
2013-05-12 22:42:00,59.0,39.0,-100.00,West,280,6.0,10.0,48,0.00,,,0.00,0.000000,,2013-05-13 05:42:00,
2013-05-12 22:52:00,59.0,39.0,-100.00,West,280,6.0,10.0,48,0.00,,,0.00,0.000000,,2013-05-13 05:52:00,
2013-05-12 23:01:00,59.0,39.0,-100.00,West,280,6.0,10.0,48,0.00,,,0.00,0.000000,,2013-05-13 06:01:00,
2013-05-12 23:11:00,59.0,39.0,-100.00,West,280,6.0,10.0,48,0.00,,,0.00,0.000000,,2013-05-13 06:11:00,
2013-05-12 23:42:00,57.0,41.0,-100.00,West,280,5.0,9.0,55,0.00,,,-99.99,0.000000,,2013-05-13 06:42:00,
2013-05-12 23:52:00,57.0,41.0,-100.00,West,280,5.0,9.0,55,0.00,,,-99.99,0.000000,,2013-05-13 06:52:00,